Time;durP1;ratioP1;P1;durP2;ratioP2;P2;SDS_P1;SDS_P2;PMS_P1;PMS_P2;Temp;Humidity;BMP_temperature;BMP_pressure;BME280_temperature;BME280_humidity;BME280_pressure;Samples;Min_cycle;Max_cycle;Signal;HPM_P1;HPM_P2
2024/02/26 00:01:46;;;;;;;2.20;1.40;;;;;9.70;96585.00;;;;4841678;29;20042;-66
2024/02/26 00:04:13;;;;;;;1.80;1.20;;;;;9.80;96576.00;;;;4857099;29;20056;-68
2024/02/26 00:06:43;;;;;;;1.50;1.20;;;;;9.90;96575.00;;;;4857200;29;20445;-67
2024/02/26 00:09:10;;;;;;;2.78;1.65;;;;;10.10;96576.00;;;;4857000;29;20443;-67
2024/02/26 00:11:37;;;;;;;2.38;1.33;;;;;10.00;96572.00;;;;4842703;29;20500;-67
2024/02/26 00:14:04;;;;;;;2.35;1.60;;;;;9.90;96584.00;;;;4841399;29;20058;-67
2024/02/26 00:16:31;;;;;;;1.40;1.30;;;;;9.80;96576.00;;;;4842638;29;20555;-67
2024/02/26 00:18:57;;;;;;;1.95;1.40;;;;;9.80;96581.00;;;;4842664;29;20056;-68
2024/02/26 00:21:24;;;;;;;3.50;1.70;;;;;10.00;96594.00;;;;4842544;29;20050;-68
2024/02/26 00:23:53;;;;;;;4.93;2.65;;;;;10.10;96600.00;;;;4842657;29;20500;-69
2024/02/26 00:26:20;;;;;;;2.95;1.80;;;;;10.10;96586.00;;;;4843480;29;20053;-68
2024/02/26 00:28:46;;;;;;;1.48;1.38;;;;;10.20;96591.00;;;;4857149;29;20050;-68
2024/02/26 00:31:13;;;;;;;2.25;1.40;;;;;10.10;96591.00;;;;4856615;29;20551;-68
2024/02/26 00:33:43;;;;;;;1.73;1.60;;;;;10.10;96601.00;;;;4842821;29;20050;-68
2024/02/26 00:36:10;;;;;;;1.48;1.25;;;;;10.10;96594.00;;;;4842467;29;20457;-68
2024/02/26 00:38:36;;;;;;;2.15;1.70;;;;;10.10;96592.00;;;;4841293;29;20106;-68
2024/02/26 00:41:03;;;;;;;1.42;1.00;;;;;10.00;96593.00;;;;4842449;29;20054;-68
2024/02/26 00:43:30;;;;;;;3.30;1.55;;;;;10.00;96588.00;;;;4843177;29;20065;-68
2024/02/26 00:45:56;;;;;;;2.28;1.10;;;;;10.00;96593.00;;;;4842515;29;20061;-68
2024/02/26 00:48:25;;;;;;;1.20;0.95;;;;;9.90;96593.00;;;;4842430;29;20551;-68
2024/02/26 00:50:52;;;;;;;1.10;0.80;;;;;10.00;96586.00;;;;4859469;29;20110;-69
2024/02/26 00:53:18;;;;;;;0.75;0.75;;;;;10.00;96591.00;;;;4846206;29;20050;-68
2024/02/26 00:55:45;;;;;;;1.77;1.20;;;;;10.00;96590.00;;;;4846229;29;20046;-68
2024/02/26 00:58:12;;;;;;;1.83;0.95;;;;;10.00;96598.00;;;;4860004;29;20057;-68
2024/02/26 01:00:38;;;;;;;1.05;0.98;;;;;9.90;96584.00;;;;4860237;29;20114;-68
2024/02/26 01:03:05;;;;;;;2.13;0.90;;;;;9.80;96595.00;;;;4844629;29;20517;-68
2024/02/26 01:05:32;;;;;;;1.35;1.00;;;;;9.90;96591.00;;;;4859869;29;20050;-68
2024/02/26 01:07:58;;;;;;;1.40;0.95;;;;;9.90;96591.00;;;;4844555;29;20054;-68
2024/02/26 01:10:25;;;;;;;1.83;1.20;;;;;10.00;96597.00;;;;4845817;29;20049;-69
2024/02/26 01:12:51;;;;;;;2.50;1.08;;;;;10.00;96601.00;;;;4844427;29;20487;-69
2024/02/26 01:15:21;;;;;;;1.25;1.10;;;;;10.10;96600.00;;;;4860078;29;20132;-69
2024/02/26 01:17:48;;;;;;;1.08;0.98;;;;;10.10;96595.00;;;;4846239;29;20049;-69
2024/02/26 01:20:15;;;;;;;2.00;1.30;;;;;9.90;96591.00;;;;4859781;29;20046;-69
2024/02/26 01:22:42;;;;;;;1.63;1.05;;;;;9.80;96583.00;;;;4845644;29;20065;-68
2024/02/26 01:25:10;;;;;;;0.98;0.95;;;;;9.80;96586.00;;;;4859667;29;20054;-68
2024/02/26 01:27:37;;;;;;;0.90;0.90;;;;;9.80;96578.00;;;;4859790;29;20046;-68
2024/02/26 01:30:04;;;;;;;1.05;0.88;;;;;9.70;96583.00;;;;4859619;29;20150;-69
2024/02/26 01:32:31;;;;;;;3.78;1.13;;;;;9.60;96571.00;;;;4845440;29;20514;-67
2024/02/26 01:34:58;;;;;;;0.90;0.90;;;;;9.50;96565.00;;;;4859465;29;20050;-67
2024/02/26 01:37:24;;;;;;;1.33;1.20;;;;;9.50;96575.00;;;;4845150;29;20061;-67
2024/02/26 01:39:51;;;;;;;1.80;1.02;;;;;9.40;96570.00;;;;4845417;29;20074;-67
2024/02/26 01:42:17;;;;;;;0.90;0.88;;;;;9.40;96573.00;;;;4843817;29;20145;-67
2024/02/26 01:44:44;;;;;;;0.80;0.80;;;;;9.40;96587.00;;;;4845365;29;20054;-67
2024/02/26 01:47:13;;;;;;;1.23;0.93;;;;;9.50;96580.00;;;;4845338;29;20077;-67
2024/02/26 01:49:40;;;;;;;1.83;1.00;;;;;9.50;96582.00;;;;4844928;29;20053;-67
2024/02/26 01:52:09;;;;;;;1.48;1.08;;;;;9.50;96576.00;;;;4844892;29;20046;-67
2024/02/26 01:54:37;;;;;;;0.93;0.85;;;;;9.50;96580.00;;;;4845187;29;20057;-67
2024/02/26 01:57:05;;;;;;;1.98;0.85;;;;;9.50;96582.00;;;;4844914;29;20511;-67
2024/02/26 01:59:34;;;;;;;1.27;0.88;;;;;9.50;96586.00;;;;4859022;29;20057;-67
2024/02/26 02:02:03;;;;;;;3.47;1.45;;;;;9.60;96599.00;;;;4858918;29;20053;-67
2024/02/26 02:04:30;;;;;;;1.17;0.88;;;;;9.60;96598.00;;;;4844751;29;20503;-67
2024/02/26 02:06:59;;;;;;;1.52;1.00;;;;;9.70;96595.00;;;;4859378;29;20093;-67
2024/02/26 02:09:28;;;;;;;1.10;0.90;;;;;9.60;96594.00;;;;4844670;29;20045;-67
2024/02/26 02:11:55;;;;;;;1.25;0.95;;;;;9.50;96606.00;;;;4858776;29;20461;-67
2024/02/26 02:14:22;;;;;;;1.35;0.95;;;;;9.50;96601.00;;;;4844652;29;20110;-67
2024/02/26 02:16:48;;;;;;;1.40;1.00;;;;;9.40;96597.00;;;;4858845;29;20054;-68
2024/02/26 02:19:15;;;;;;;3.22;1.00;;;;;9.50;96601.00;;;;4859262;29;20042;-68
2024/02/26 02:21:42;;;;;;;0.70;0.70;;;;;9.50;96609.00;;;;4844658;29;20085;-68
2024/02/26 02:24:08;;;;;;;1.75;1.45;;;;;9.50;96606.00;;;;4858610;29;20081;-68
2024/02/26 02:26:35;;;;;;;0.85;0.85;;;;;9.50;96602.00;;;;4859061;29;20046;-68
2024/02/26 02:29:02;;;;;;;0.88;0.88;;;;;9.40;96597.00;;;;4844388;29;20050;-67
2024/02/26 02:31:29;;;;;;;1.42;0.90;;;;;9.40;96601.00;;;;4858370;29;20057;-67
2024/02/26 02:33:56;;;;;;;1.10;1.00;;;;;9.40;96600.00;;;;4844294;29;20058;-67
2024/02/26 02:36:23;;;;;;;0.70;0.70;;;;;9.30;96600.00;;;;4844240;29;20054;-68
2024/02/26 02:38:50;;;;;;;2.25;0.90;;;;;9.20;96596.00;;;;4844279;29;20077;-67
2024/02/26 02:41:17;;;;;;;1.20;1.10;;;;;9.30;96586.00;;;;4858141;29;20050;-67
2024/02/26 02:43:44;;;;;;;1.38;1.00;;;;;9.30;96588.00;;;;4858574;29;20050;-69
2024/02/26 02:46:11;;;;;;;0.80;0.80;;;;;9.30;96590.00;;;;4844129;29;20082;-68
2024/02/26 02:48:38;;;;;;;1.00;0.80;;;;;9.30;96590.00;;;;4844263;29;20045;-69
2024/02/26 02:51:05;;;;;;;1.20;0.93;;;;;9.20;96584.00;;;;4858358;29;20077;-70
2024/02/26 02:53:32;;;;;;;1.73;1.00;;;;;9.10;96584.00;;;;4844530;29;20049;-67
2024/02/26 02:55:58;;;;;;;0.85;0.70;;;;;9.00;96581.00;;;;4844418;29;20071;-67
2024/02/26 02:58:25;;;;;;;1.65;1.40;;;;;8.90;96580.00;;;;4844209;29;20073;-67
2024/02/26 03:00:51;;;;;;;1.20;0.80;;;;;8.90;96579.00;;;;4844235;29;20065;-67
2024/02/26 03:03:18;;;;;;;1.02;0.93;;;;;9.00;96575.00;;;;4843843;29;20070;-67
2024/02/26 03:05:44;;;;;;;1.42;0.95;;;;;9.00;96575.00;;;;4843734;29;20106;-67
2024/02/26 03:08:11;;;;;;;1.92;1.05;;;;;9.00;96575.00;;;;4843750;29;20389;-67
2024/02/26 03:10:38;;;;;;;1.00;0.88;;;;;8.90;96573.00;;;;4843639;29;20056;-67
2024/02/26 03:13:04;;;;;;;3.50;0.90;;;;;8.80;96567.00;;;;4843409;29;20126;-67
2024/02/26 03:15:31;;;;;;;2.67;0.90;;;;;8.80;96570.00;;;;4842410;29;20478;-68
2024/02/26 03:17:57;;;;;;;0.73;0.73;;;;;8.80;96572.00;;;;4857651;29;20480;-68
2024/02/26 03:20:24;;;;;;;0.90;0.90;;;;;8.70;96569.00;;;;4843435;29;20057;-68
2024/02/26 03:22:50;;;;;;;1.10;1.00;;;;;8.60;96569.00;;;;4843481;29;20053;-67
2024/02/26 03:25:17;;;;;;;1.55;1.30;;;;;8.60;96569.00;;;;4843633;29;20081;-67
2024/02/26 03:27:43;;;;;;;1.40;0.90;;;;;8.60;96565.00;;;;4843478;29;20499;-67
2024/02/26 03:30:10;;;;;;;1.23;0.88;;;;;8.70;96560.00;;;;4857867;29;20120;-68
2024/02/26 03:32:37;;;;;;;0.70;0.70;;;;;8.60;96565.00;;;;4843250;29;20042;-68
2024/02/26 03:35:04;;;;;;;0.77;0.77;;;;;8.60;96563.00;;;;4857293;29;20066;-68
2024/02/26 03:37:30;;;;;;;0.70;0.70;;;;;8.60;96563.00;;;;4843478;29;20411;-68
2024/02/26 03:39:57;;;;;;;1.75;0.70;;;;;8.50;96557.00;;;;4843288;29;20072;-68
2024/02/26 03:42:24;;;;;;;1.00;0.80;;;;;8.50;96552.00;;;;4857099;29;20054;-68
2024/02/26 03:44:51;;;;;;;0.93;0.88;;;;;8.40;96540.00;;;;4843345;29;20496;-68
2024/02/26 03:47:17;;;;;;;0.77;0.77;;;;;8.40;96553.00;;;;4843325;29;20046;-68
2024/02/26 03:49:44;;;;;;;1.35;1.00;;;;;8.40;96549.00;;;;4857153;29;20407;-68
2024/02/26 03:52:10;;;;;;;1.00;0.70;;;;;8.30;96549.00;;;;4843024;29;20576;-67
2024/02/26 03:54:37;;;;;;;0.75;0.75;;;;;8.30;96544.00;;;;4842887;29;20061;-68
2024/02/26 03:57:04;;;;;;;0.98;0.88;;;;;8.20;96546.00;;;;4843152;29;20077;-68
2024/02/26 03:59:30;;;;;;;2.45;1.10;;;;;8.20;96553.00;;;;4857051;29;20527;-68
2024/02/26 04:01:57;;;;;;;1.23;1.00;;;;;8.20;96550.00;;;;4842678;29;20046;-68
2024/02/26 04:04:23;;;;;;;1.58;0.85;;;;;8.20;96542.00;;;;4843347;29;20056;-68
2024/02/26 04:06:50;;;;;;;5.65;3.17;;;;;8.20;96550.00;;;;4857009;29;20056;-68
2024/02/26 04:09:17;;;;;;;1.70;1.00;;;;;8.20;96545.00;;;;4843866;29;20133;-68
2024/02/26 04:11:43;;;;;;;1.75;1.33;;;;;8.30;96550.00;;;;4841534;29;20077;-69
2024/02/26 04:14:12;;;;;;;1.65;1.10;;;;;8.30;96548.00;;;;4856949;29;20098;-69
2024/02/26 04:16:39;;;;;;;1.27;1.10;;;;;8.30;96539.00;;;;4842695;29;20074;-67
2024/02/26 04:19:06;;;;;;;3.70;1.30;;;;;8.40;96540.00;;;;4842664;29;20045;-67
2024/02/26 04:21:34;;;;;;;1.30;0.85;;;;;8.40;96541.00;;;;4842562;29;20500;-67
2024/02/26 04:24:01;;;;;;;1.60;1.10;;;;;8.30;96535.00;;;;4842136;29;20132;-67
2024/02/26 04:26:30;;;;;;;1.05;0.95;;;;;8.20;96540.00;;;;4842642;29;20054;-67
2024/02/26 04:28:56;;;;;;;1.20;1.10;;;;;8.20;96535.00;;;;4856876;29;20054;-68
2024/02/26 04:31:23;;;;;;;1.23;0.80;;;;;8.20;96538.00;;;;4841355;29;20058;-68
2024/02/26 04:33:50;;;;;;;0.68;0.68;;;;;8.10;96534.00;;;;4856942;29;20057;-69
2024/02/26 04:36:17;;;;;;;0.70;0.70;;;;;8.10;96539.00;;;;4856728;29;20136;-69
2024/02/26 04:38:44;;;;;;;1.20;1.08;;;;;8.10;96554.00;;;;4841872;29;20491;-68
2024/02/26 04:41:11;;;;;;;1.10;1.00;;;;;8.00;96542.00;;;;4842805;29;20091;-68
2024/02/26 04:43:44;;;;;;;1.10;0.90;;;;;8.00;96547.00;;;;4856472;29;20107;-68
2024/02/26 04:46:10;;;;;;;1.33;1.23;;;;;8.00;96549.00;;;;4856643;29;20058;-68
2024/02/26 04:48:38;;;;;;;39.67;23.00;;;;;8.00;96547.00;;;;4857004;29;20049;-68
2024/02/26 04:51:05;;;;;;;1.88;1.42;;;;;8.00;96554.00;;;;4856354;29;20065;-68
2024/02/26 04:53:32;;;;;;;1.45;1.10;;;;;8.00;96550.00;;;;4842522;29;20046;-68
2024/02/26 04:55:58;;;;;;;1.30;0.80;;;;;8.10;96555.00;;;;4856514;29;20050;-68
2024/02/26 04:58:25;;;;;;;0.90;0.75;;;;;8.10;96554.00;;;;4842443;29;20046;-68
2024/02/26 05:00:51;;;;;;;4.25;1.73;;;;;8.10;96559.00;;;;4856656;29;20411;-68
2024/02/26 05:03:18;;;;;;;1.90;0.98;;;;;8.20;96565.00;;;;4857217;29;20095;-68
2024/02/26 05:05:45;;;;;;;0.77;0.77;;;;;8.20;96559.00;;;;4856417;29;20400;-68
2024/02/26 05:08:12;;;;;;;1.50;0.85;;;;;8.20;96560.00;;;;4842589;29;20445;-67
2024/02/26 05:10:43;;;;;;;1.75;1.25;;;;;8.20;96553.00;;;;4842605;29;20479;-67
2024/02/26 05:13:09;;;;;;;1.30;1.20;;;;;8.20;96566.00;;;;4856603;29;20057;-69
2024/02/26 05:15:36;;;;;;;1.27;0.70;;;;;8.20;96567.00;;;;4841260;29;20050;-68
2024/02/26 05:18:03;;;;;;;1.88;1.00;;;;;8.30;96569.00;;;;4856258;29;20132;-68
2024/02/26 05:20:31;;;;;;;3.28;1.40;;;;;8.30;96573.00;;;;4856828;29;20056;-68
2024/02/26 05:22:58;;;;;;;1.38;1.23;;;;;8.30;96572.00;;;;4840652;29;20046;-68
2024/02/26 05:25:25;;;;;;;1.58;1.30;;;;;8.30;96570.00;;;;4842071;29;20132;-68
2024/02/26 05:27:52;;;;;;;3.60;1.52;;;;;8.30;96570.00;;;;4856517;29;20046;-69
2024/02/26 05:30:18;;;;;;;3.60;1.10;;;;;8.30;96573.00;;;;4856421;29;20058;-70
2024/02/26 05:32:45;;;;;;;2.42;1.45;;;;;8.20;96567.00;;;;4856380;29;20496;-69
2024/02/26 05:35:12;;;;;;;1.67;1.13;;;;;8.20;96571.00;;;;4856184;29;20054;-69
2024/02/26 05:37:39;;;;;;;1.92;1.30;;;;;8.30;96571.00;;;;4844436;29;20054;-69
2024/02/26 05:40:06;;;;;;;1.30;1.20;;;;;8.30;96574.00;;;;4859293;29;20050;-69
2024/02/26 05:42:33;;;;;;;2.80;1.00;;;;;8.20;96580.00;;;;4845274;29;20120;-69
2024/02/26 05:45:04;;;;;;;2.35;1.00;;;;;8.20;96586.00;;;;4859633;29;20082;-69
2024/02/26 05:47:34;;;;;;;3.72;2.40;;;;;8.30;96590.00;;;;4845501;29;20060;-69
2024/02/26 05:50:04;;;;;;;1.63;1.30;;;;;8.30;96584.00;;;;4845430;29;20048;-69
2024/02/26 05:52:31;;;;;;;2.47;1.40;;;;;8.20;96590.00;;;;4844752;29;20583;-68
2024/02/26 05:54:58;;;;;;;24.67;13.65;;;;;8.30;96593.00;;;;4845281;29;20061;-69
2024/02/26 05:57:24;;;;;;;3.92;1.85;;;;;8.20;96590.00;;;;4861457;29;20050;-69
2024/02/26 05:59:51;;;;;;;2.50;1.40;;;;;8.10;96584.00;;;;4853206;29;20046;-69
2024/02/26 06:02:18;;;;;;;1.08;0.90;;;;;8.10;96600.00;;;;4848210;29;20050;-68
2024/02/26 06:04:46;;;;;;;1.35;1.25;;;;;8.10;96601.00;;;;4863498;29;20088;-68
2024/02/26 06:07:12;;;;;;;1.63;1.00;;;;;8.10;96608.00;;;;4849796;29;20054;-68
2024/02/26 06:09:39;;;;;;;0.90;0.90;;;;;8.10;96603.00;;;;4871333;29;20054;-67
2024/02/26 06:12:06;;;;;;;1.05;1.00;;;;;8.10;96612.00;;;;4848932;29;20465;-67
2024/02/26 06:14:33;;;;;;;1.90;1.35;;;;;8.10;96614.00;;;;4849023;29;20057;-68
2024/02/26 06:16:59;;;;;;;1.27;0.95;;;;;8.10;96616.00;;;;4863869;29;20049;-68
2024/02/26 06:19:26;;;;;;;1.65;1.30;;;;;8.10;96619.00;;;;4846381;29;20089;-68
2024/02/26 06:21:52;;;;;;;1.52;0.80;;;;;8.10;96616.00;;;;4843522;29;20081;-67
2024/02/26 06:24:20;;;;;;;2.33;1.30;;;;;8.00;96629.00;;;;4844753;29;20046;-68
2024/02/26 06:26:47;;;;;;;1.52;1.02;;;;;8.00;96623.00;;;;4845202;29;20408;-68
2024/02/26 06:29:14;;;;;;;1.40;1.30;;;;;8.00;96628.00;;;;4844395;29;20058;-67
2024/02/26 06:31:41;;;;;;;1.35;1.13;;;;;8.10;96627.00;;;;4858824;29;20587;-67
2024/02/26 06:34:08;;;;;;;3.72;1.88;;;;;8.00;96633.00;;;;4844633;29;20048;-68
2024/02/26 06:36:35;;;;;;;2.83;1.80;;;;;8.10;96635.00;;;;4844484;29;20094;-68
2024/02/26 06:39:01;;;;;;;1.30;1.20;;;;;8.10;96637.00;;;;4858464;29;20049;-68
2024/02/26 06:41:29;;;;;;;1.73;1.33;;;;;8.10;96634.00;;;;4858492;29;20106;-69
2024/02/26 06:43:56;;;;;;;1.60;1.35;;;;;8.20;96636.00;;;;4844208;29;20050;-69
2024/02/26 06:46:23;;;;;;;1.20;1.10;;;;;8.20;96641.00;;;;4844176;29;20050;-69
2024/02/26 06:48:49;;;;;;;2.10;1.40;;;;;8.10;96642.00;;;;4843723;29;20124;-69
2024/02/26 06:51:20;;;;;;;1.45;1.30;;;;;8.10;96634.00;;;;4857522;29;20419;-69
2024/02/26 06:53:48;;;;;;;1.75;1.30;;;;;8.10;96638.00;;;;4842827;29;20050;-69
2024/02/26 06:56:14;;;;;;;2.03;1.20;;;;;8.10;96645.00;;;;4844027;29;20050;-69
2024/02/26 06:58:41;;;;;;;1.58;1.48;;;;;8.10;96638.00;;;;4843898;29;20061;-69
2024/02/26 07:01:10;;;;;;;1.75;1.42;;;;;8.10;96638.00;;;;4844168;29;20077;-69
2024/02/26 07:03:36;;;;;;;2.30;1.50;;;;;8.10;96640.00;;;;4843855;29;20102;-68
2024/02/26 07:06:04;;;;;;;3.58;1.45;;;;;8.10;96637.00;;;;4843841;29;20057;-69
2024/02/26 07:08:30;;;;;;;1.63;1.10;;;;;8.20;96641.00;;;;4843862;29;20110;-68
2024/02/26 07:10:57;;;;;;;2.10;1.25;;;;;8.20;96650.00;;;;4843721;29;20675;-68
2024/02/26 07:13:23;;;;;;;1.65;1.27;;;;;8.30;96660.00;;;;4843771;29;20074;-68
2024/02/26 07:15:50;;;;;;;2.03;1.75;;;;;8.30;96652.00;;;;4843600;29;20064;-68
2024/02/26 07:18:16;;;;;;;5.45;3.30;;;;;8.40;96666.00;;;;4844238;29;20042;-68
2024/02/26 07:20:43;;;;;;;2.33;1.80;;;;;8.50;96663.00;;;;4843733;29;20060;-68
2024/02/26 07:23:10;;;;;;;4.55;2.92;;;;;8.50;96667.00;;;;4843548;29;20042;-67
2024/02/26 07:25:37;;;;;;;1.38;1.25;;;;;8.50;96678.00;;;;4857616;29;20530;-67
2024/02/26 07:28:03;;;;;;;1.13;0.93;;;;;8.50;96675.00;;;;4843398;29;20054;-67
2024/02/26 07:30:30;;;;;;;1.75;1.50;;;;;8.50;96671.00;;;;4857530;29;20506;-67
2024/02/26 07:32:57;;;;;;;1.45;1.00;;;;;8.50;96680.00;;;;4858013;29;20527;-67
2024/02/26 07:35:23;;;;;;;1.20;0.98;;;;;8.50;96677.00;;;;4844066;29;20045;-67
2024/02/26 07:37:50;;;;;;;1.42;1.10;;;;;8.60;96683.00;;;;4842090;29;20057;-67
2024/02/26 07:40:17;;;;;;;1.67;1.25;;;;;8.70;96684.00;;;;4843507;29;20114;-67
2024/02/26 07:42:43;;;;;;;2.00;1.20;;;;;8.70;96683.00;;;;4842964;29;20492;-67
2024/02/26 07:45:10;;;;;;;1.60;1.27;;;;;8.70;96690.00;;;;4843205;29;20453;-67
2024/02/26 07:47:40;;;;;;;2.92;1.98;;;;;8.80;96679.00;;;;4843190;29;20050;-67
2024/02/26 07:50:08;;;;;;;1.92;1.20;;;;;8.80;96682.00;;;;4843199;29;20424;-67
2024/02/26 07:52:35;;;;;;;1.17;1.10;;;;;8.80;96683.00;;;;4842952;29;20050;-66
2024/02/26 07:55:02;;;;;;;1.08;0.93;;;;;8.90;96690.00;;;;4843140;29;20056;-67
2024/02/26 07:57:33;;;;;;;1.23;1.10;;;;;8.80;96691.00;;;;4843342;29;20057;-67
2024/02/26 08:00:00;;;;;;;2.83;1.50;;;;;8.90;96697.00;;;;4842439;29;20471;-67
2024/02/26 08:02:30;;;;;;;1.73;1.33;;;;;9.00;96704.00;;;;4843142;29;20099;-68
2024/02/26 08:04:56;;;;;;;1.10;0.90;;;;;9.00;96702.00;;;;4843110;29;20077;-67
2024/02/26 08:07:23;;;;;;;1.92;1.45;;;;;9.00;96704.00;;;;4844249;29;20050;-70
2024/02/26 08:09:50;;;;;;;2.85;1.77;;;;;9.10;96710.00;;;;4857216;29;20056;-66
2024/02/26 08:12:17;;;;;;;1.73;1.48;;;;;9.10;96707.00;;;;4856854;29;20050;-66
2024/02/26 08:14:43;;;;;;;1.63;1.35;;;;;9.10;96711.00;;;;4856978;29;20419;-66
2024/02/26 08:17:10;;;;;;;1.73;1.30;;;;;9.10;96714.00;;;;4842765;29;20136;-66
2024/02/26 08:19:37;;;;;;;1.23;1.13;;;;;9.10;96715.00;;;;4842761;29;20555;-66
2024/02/26 08:22:03;;;;;;;2.00;1.80;;;;;9.10;96713.00;;;;4857732;29;20057;-69
2024/02/26 08:24:30;;;;;;;2.65;1.40;;;;;9.10;96718.00;;;;4858865;29;20050;-70
2024/02/26 08:26:57;;;;;;;2.33;1.40;;;;;9.20;96706.00;;;;4845317;29;20050;-70
2024/02/26 08:29:24;;;;;;;4.70;1.20;;;;;9.30;96704.00;;;;4845794;29;20068;-69
2024/02/26 08:31:50;;;;;;;1.77;1.27;;;;;9.40;96701.00;;;;4857673;29;20484;-70
2024/02/26 08:34:17;;;;;;;1.08;0.98;;;;;9.50;96692.00;;;;4856823;29;20056;-68
2024/02/26 08:36:44;;;;;;;2.25;1.48;;;;;9.50;96697.00;;;;4856743;29;20056;-66
2024/02/26 08:39:13;;;;;;;1.73;1.42;;;;;9.50;96702.00;;;;4842950;29;20058;-67
2024/02/26 08:41:40;;;;;;;1.92;1.17;;;;;9.50;96718.00;;;;4856809;29;20128;-68
2024/02/26 08:44:06;;;;;;;1.20;1.08;;;;;9.50;96720.00;;;;4842526;29;20046;-68
2024/02/26 08:46:33;;;;;;;1.20;1.10;;;;;9.50;96726.00;;;;4842565;29;20551;-68
2024/02/26 08:49:00;;;;;;;1.95;1.40;;;;;9.50;96722.00;;;;4842596;29;20537;-68
2024/02/26 08:51:26;;;;;;;1.10;1.00;;;;;9.60;96734.00;;;;4841166;29;20060;-68
2024/02/26 08:53:53;;;;;;;3.25;1.33;;;;;9.60;96746.00;;;;4856654;29;20133;-68
2024/02/26 08:56:21;;;;;;;1.15;1.00;;;;;9.70;96735.00;;;;4841246;29;20054;-68
2024/02/26 08:58:53;;;;;;;1.15;1.05;;;;;9.80;96733.00;;;;4842500;29;20492;-69
2024/02/26 09:01:20;;;;;;;1.40;0.80;;;;;9.80;96718.00;;;;4842744;29;20053;-69
2024/02/26 09:03:46;;;;;;;1.50;1.40;;;;;9.90;96719.00;;;;4842402;29;20042;-69
2024/02/26 09:06:15;;;;;;;1.35;1.20;;;;;10.00;96719.00;;;;4842605;29;20499;-68
2024/02/26 09:08:42;;;;;;;1.15;1.02;;;;;10.10;96725.00;;;;4841232;29;20145;-68
2024/02/26 09:11:10;;;;;;;1.20;1.00;;;;;10.20;96730.00;;;;4844391;29;20053;-68
2024/02/26 09:13:36;;;;;;;1.25;1.15;;;;;10.40;96731.00;;;;4845823;29;20081;-68
2024/02/26 09:16:03;;;;;;;1.65;1.08;;;;;10.60;96730.00;;;;4860147;29;20121;-68
2024/02/26 09:18:30;;;;;;;1.40;1.00;;;;;10.60;96742.00;;;;4859961;29;20049;-68
2024/02/26 09:20:57;;;;;;;1.80;0.90;;;;;10.70;96749.00;;;;4845825;29;20074;-71
2024/02/26 09:23:23;;;;;;;1.55;1.00;;;;;10.80;96746.00;;;;4849765;29;20049;-71
2024/02/26 09:25:50;;;;;;;1.00;1.00;;;;;10.80;96750.00;;;;4867802;29;20054;-72
2024/02/26 09:28:17;;;;;;;2.13;0.80;;;;;10.80;96752.00;;;;4865381;29;20050;-72
2024/02/26 09:30:44;;;;;;;1.20;1.00;;;;;10.90;96755.00;;;;4867066;29;20050;-71
2024/02/26 09:33:11;;;;;;;0.80;0.80;;;;;10.90;96751.00;;;;4867695;29;20046;-71
2024/02/26 09:35:38;;;;;;;1.65;1.13;;;;;11.00;96757.00;;;;4861635;29;20510;-69
2024/02/26 09:38:05;;;;;;;1.58;1.30;;;;;11.10;96764.00;;;;4847718;29;20058;-71
2024/02/26 09:40:34;;;;;;;1.67;1.40;;;;;11.20;96773.00;;;;4859554;29;20085;-68
2024/02/26 09:43:03;;;;;;;1.40;1.30;;;;;11.40;96775.00;;;;4859545;29;20129;-69
2024/02/26 09:45:32;;;;;;;1.52;1.00;;;;;11.50;96761.00;;;;4846162;29;20387;-69
2024/02/26 09:48:01;;;;;;;2.03;1.00;;;;;11.60;96758.00;;;;4844087;29;20046;-69
2024/02/26 09:50:28;;;;;;;1.00;0.90;;;;;11.80;96757.00;;;;4860933;29;20129;-71
2024/02/26 09:52:57;;;;;;;2.80;1.20;;;;;11.90;96766.00;;;;4862195;29;20102;-70
2024/02/26 09:55:24;;;;;;;1.85;0.80;;;;;11.90;96777.00;;;;4844847;29;20153;-73
2024/02/26 09:57:51;;;;;;;0.80;0.75;;;;;11.90;96772.00;;;;4845388;29;20056;-69
2024/02/26 10:00:20;;;;;;;1.35;1.00;;;;;12.00;96774.00;;;;4860804;29;20110;-70
2024/02/26 10:02:48;;;;;;;1.58;1.02;;;;;12.20;96767.00;;;;4845788;29;20054;-71
2024/02/26 10:05:18;;;;;;;2.20;0.93;;;;;12.30;96762.00;;;;4845362;29;20073;-70
2024/02/26 10:07:45;;;;;;;1.33;1.05;;;;;12.40;96765.00;;;;4859925;29;20049;-69
2024/02/26 10:10:13;;;;;;;1.25;0.95;;;;;12.40;96770.00;;;;4844849;29;20419;-69
2024/02/26 10:12:40;;;;;;;1.25;0.77;;;;;12.30;96764.00;;;;4843687;29;20496;-69
2024/02/26 10:15:08;;;;;;;0.90;0.70;;;;;12.40;96762.00;;;;4844865;29;20081;-69
2024/02/26 10:17:36;;;;;;;0.65;0.65;;;;;12.40;96771.00;;;;4858867;29;20107;-69
2024/02/26 10:20:17;;;;;;;1.55;0.68;;;;;12.60;96768.00;;;;4844693;29;20119;-69
2024/02/26 10:22:45;;;;;;;0.70;0.70;;;;;12.60;96778.00;;;;4844526;29;20090;-69
2024/02/26 10:25:12;;;;;;;0.82;0.70;;;;;12.70;96780.00;;;;4844685;29;20046;-69
2024/02/26 10:27:41;;;;;;;1.17;0.70;;;;;12.80;96785.00;;;;4858974;29;20121;-71
2024/02/26 10:30:19;;;;;;;0.80;0.80;;;;;12.90;96790.00;;;;4844534;29;20173;-71
2024/02/26 10:32:47;;;;;;;1.02;0.95;;;;;12.90;96800.00;;;;4858526;29;20428;-71
2024/02/26 10:35:15;;;;;;;0.70;0.70;;;;;12.90;96805.00;;;;4844559;29;20058;-71
2024/02/26 10:37:42;;;;;;;0.70;0.52;;;;;12.80;96805.00;;;;4844435;29;20046;-71
2024/02/26 10:40:13;;;;;;;0.50;0.50;;;;;12.70;96816.00;;;;4858510;29;20050;-71
2024/02/26 10:42:41;;;;;;;0.60;0.52;;;;;12.80;96816.00;;;;4858420;29;20058;-71
2024/02/26 10:45:09;;;;;;;1.92;0.50;;;;;12.80;96813.00;;;;4858284;29;20531;-71
2024/02/26 10:47:36;;;;;;;0.60;0.60;;;;;12.80;96824.00;;;;4843110;29;20053;-71
2024/02/26 10:50:05;;;;;;;0.80;0.60;;;;;12.90;96815.00;;;;4844747;29;20128;-71
2024/02/26 10:52:34;;;;;;;2.05;0.70;;;;;13.00;96812.00;;;;4843934;29;20609;-71
2024/02/26 10:55:05;;;;;;;0.80;0.70;;;;;13.10;96814.00;;;;4844227;29;20042;-71
2024/02/26 10:57:39;;;;;;;0.85;0.70;;;;;13.20;96819.00;;;;4858670;29;20424;-71
2024/02/26 11:00:13;;;;;;;0.68;0.68;;;;;13.20;96806.00;;;;4844591;29;20049;-71
2024/02/26 11:02:40;;;;;;;0.60;0.60;;;;;13.20;96800.00;;;;4843907;29;20075;-71
2024/02/26 11:05:08;;;;;;;0.55;0.50;;;;;13.30;96804.00;;;;4844190;29;20052;-71
2024/02/26 11:07:38;;;;;;;0.95;0.60;;;;;13.30;96799.00;;;;4843770;29;20054;-71
2024/02/26 11:10:05;;;;;;;0.55;0.55;;;;;13.50;96805.00;;;;4843976;29;20053;-71
2024/02/26 11:12:37;;;;;;;0.50;0.50;;;;;13.80;96813.00;;;;4858031;29;20388;-71
2024/02/26 11:15:04;;;;;;;0.88;0.80;;;;;13.90;96813.00;;;;4844124;29;20065;-71
2024/02/26 11:17:33;;;;;;;1.20;0.55;;;;;13.90;96817.00;;;;4858000;29;20415;-70
2024/02/26 11:20:02;;;;;;;1.25;0.70;;;;;13.80;96830.00;;;;4843702;29;20050;-70
2024/02/26 11:22:29;;;;;;;0.52;0.52;;;;;13.70;96839.00;;;;4843589;29;20057;-70
2024/02/26 11:24:57;;;;;;;0.82;0.80;;;;;13.80;96838.00;;;;4857723;29;20128;-70
2024/02/26 11:27:30;;;;;;;1.95;0.95;;;;;14.10;96847.00;;;;4857765;29;20115;-71
2024/02/26 11:29:59;;;;;;;1.05;0.80;;;;;14.20;96845.00;;;;4843786;29;20499;-70
2024/02/26 11:32:29;;;;;;;0.50;0.50;;;;;14.20;96857.00;;;;4857584;29;20045;-70
2024/02/26 11:34:57;;;;;;;0.85;0.60;;;;;14.20;96846.00;;;;4843667;29;20117;-71
2024/02/26 11:37:25;;;;;;;1.60;0.60;;;;;14.20;96848.00;;;;4843451;29;20042;-70
2024/02/26 11:39:52;;;;;;;0.65;0.55;;;;;14.20;96846.00;;;;4843940;29;20476;-70
2024/02/26 11:42:25;;;;;;;0.73;0.60;;;;;14.10;96843.00;;;;4841882;29;20148;-71
2024/02/26 11:44:52;;;;;;;1.00;0.60;;;;;14.00;96847.00;;;;4843355;29;20557;-70
2024/02/26 11:47:20;;;;;;;0.43;0.43;;;;;13.90;96849.00;;;;4843829;29;20092;-71
2024/02/26 11:49:48;;;;;;;1.13;0.60;;;;;13.80;96851.00;;;;4865204;29;20085;-72
2024/02/26 11:52:16;;;;;;;0.60;0.60;;;;;13.70;96847.00;;;;4850426;29;20077;-71
2024/02/26 11:54:42;;;;;;;1.23;0.60;;;;;13.60;96843.00;;;;4848925;29;20050;-71
2024/02/26 11:57:22;;;;;;;2.33;1.00;;;;;13.50;96838.00;;;;4847271;29;20045;-71
2024/02/26 11:59:50;;;;;;;1.05;0.70;;;;;13.50;96838.00;;;;4861717;29;20054;-71
2024/02/26 12:02:49;;;;;;;0.65;0.65;;;;;13.40;96850.00;;;;4849789;29;20084;-71
2024/02/26 12:05:26;;;;;;;1.17;0.95;;;;;13.40;96859.00;;;;4847224;29;20420;-71
2024/02/26 12:07:55;;;;;;;0.70;0.70;;;;;13.40;96851.00;;;;4846713;29;20457;-71
2024/02/26 12:10:28;;;;;;;0.63;0.60;;;;;13.50;96851.00;;;;4846221;29;20058;-71
2024/02/26 12:12:59;;;;;;;0.70;0.70;;;;;13.50;96853.00;;;;4861926;29;20393;-71
2024/02/26 12:15:32;;;;;;;1.83;0.70;;;;;13.60;96855.00;;;;4862396;29;20136;-71
2024/02/26 12:18:04;;;;;;;1.98;0.82;;;;;13.70;96851.00;;;;4861637;29;20050;-71
2024/02/26 12:20:31;;;;;;;0.50;0.50;;;;;13.70;96857.00;;;;4845463;29;20080;-70
2024/02/26 12:22:58;;;;;;;0.75;0.60;;;;;13.80;96851.00;;;;4841216;29;20058;-70
2024/02/26 12:25:26;;;;;;;0.70;0.70;;;;;13.80;96847.00;;;;4856643;29;20522;-70